Time;durP1;ratioP1;P1;durP2;ratioP2;P2;SDS_P1;SDS_P2;PMS_P1;PMS_P2;Temp;Humidity;BMP_temperature;BMP_pressure;BME280_temperature;BME280_humidity;BME280_pressure;Samples;Min_cycle;Max_cycle;Signal;HPM_P1;HPM_P2
2021/09/26 00:02:07;;;;;;;1.83;1.73;;;17.50;98.40;;;;;;4919478;29;20128;-84
2021/09/26 00:04:35;;;;;;;3.40;3.15;;;17.50;98.80;;;;;;4920558;29;20126;-89
2021/09/26 00:07:03;;;;;;;2.20;2.05;;;17.40;99.20;;;;;;4937141;29;20123;-85
2021/09/26 00:09:30;;;;;;;1.95;1.85;;;17.40;99.50;;;;;;4936884;29;20134;-83
2021/09/26 00:11:58;;;;;;;2.20;2.00;;;17.30;99.10;;;;;;4917396;29;20085;-80
2021/09/26 00:14:25;;;;;;;2.10;2.00;;;17.30;99.00;;;;;;4936459;29;20075;-83
2021/09/26 00:16:54;;;;;;;1.95;1.85;;;17.30;99.20;;;;;;4919157;29;20051;-84
2021/09/26 00:19:21;;;;;;;2.28;2.08;;;17.30;98.80;;;;;;4936235;29;20068;-84
2021/09/26 00:21:49;;;;;;;2.22;2.10;;;17.30;99.10;;;;;;4937720;29;20046;-87
2021/09/26 00:24:25;;;;;;;5.20;3.08;;;17.30;99.60;;;;;;4932178;29;20063;-81
2021/09/26 00:26:52;;;;;;;1.70;1.60;;;17.30;99.30;;;;;;4936387;29;20046;-81
2021/09/26 00:29:19;;;;;;;2.83;2.63;;;17.30;99.20;;;;;;4936958;29;20403;-84
2021/09/26 00:31:47;;;;;;;1.90;1.80;;;17.20;99.60;;;;;;4936738;29;20399;-83
2021/09/26 00:34:14;;;;;;;2.00;1.90;;;17.10;99.90;;;;;;4936226;29;20044;-83
2021/09/26 00:36:41;;;;;;;5.95;2.78;;;17.10;99.90;;;;;;4934386;29;20063;-84
2021/09/26 00:39:09;;;;;;;2.47;2.28;;;17.10;99.90;;;;;;4903900;29;20055;-82
2021/09/26 00:41:39;;;;;;;2.08;1.98;;;16.90;99.90;;;;;;4935618;29;20059;-85
2021/09/26 00:44:06;;;;;;;12.10;3.45;;;16.80;99.90;;;;;;4936623;29;20046;-83
2021/09/26 00:46:35;;;;;;;3.58;3.30;;;16.70;99.90;;;;;;4934456;29;20066;-82
2021/09/26 00:49:02;;;;;;;1.90;1.80;;;16.60;99.90;;;;;;4917613;29;20555;-81
2021/09/26 00:51:29;;;;;;;2.17;2.05;;;16.60;99.90;;;;;;4919059;29;20127;-80
2021/09/26 00:53:57;;;;;;;5.35;3.13;;;16.60;99.90;;;;;;4935666;29;20404;-80
2021/09/26 00:56:24;;;;;;;2.38;2.05;;;16.40;99.90;;;;;;4936315;29;20043;-82
2021/09/26 00:58:58;;;;;;;2.25;2.08;;;16.30;99.90;;;;;;4934227;29;20074;-79
2021/09/26 01:01:25;;;;;;;4.70;3.78;;;16.60;99.90;;;;;;4921337;29;20048;-86
2021/09/26 01:03:54;;;;;;;2.38;2.17;;;16.70;99.90;;;;;;4918308;29;20051;-82
2021/09/26 01:06:43;;;;;;;12.80;3.58;;;16.80;99.90;;;;;;4918033;29;20059;-89
2021/09/26 01:09:32;;;;;;;2.42;2.22;;;16.90;99.90;;;;;;4917091;29;20449;-85
2021/09/26 01:12:53;;;;;;;2.30;2.10;;;16.80;99.90;;;;;;4898476;29;20052;-84
2021/09/26 01:15:42;;;;;;;1.90;1.80;;;16.70;99.90;;;;;;4880855;29;20139;-84
2021/09/26 01:18:24;;;;;;;2.40;2.20;;;16.60;99.90;;;;;;4897228;29;20083;-82
2021/09/26 01:21:16;;;;;;;2.05;1.92;;;16.50;99.90;;;;;;4884428;29;20067;-85
2021/09/26 01:24:14;;;;;;;1.90;1.80;;;16.60;99.90;;;;;;4897277;29;20062;-85
2021/09/26 01:26:47;;;;;;;2.92;2.72;;;16.60;99.90;;;;;;4917275;29;20047;-83
2021/09/26 01:29:28;;;;;;;2.03;1.92;;;16.70;99.90;;;;;;4917653;29;20054;-86
2021/09/26 01:32:03;;;;;;;2.28;2.10;;;16.50;99.90;;;;;;4917321;29;20040;-86
2021/09/26 01:34:47;;;;;;;36.38;3.33;;;16.40;99.90;;;;;;4899408;29;20044;-85
2021/09/26 01:37:20;;;;;;;1.88;1.77;;;16.60;99.90;;;;;;4917850;29;20047;-86
2021/09/26 01:40:05;;;;;;;2.50;2.30;;;16.80;99.90;;;;;;4916630;29;20407;-86
2021/09/26 01:42:37;;;;;;;1.88;1.77;;;16.70;99.90;;;;;;4901120;29;20090;-84
2021/09/26 01:45:25;;;;;;;2.50;2.30;;;16.50;99.90;;;;;;4916775;29;20443;-84
2021/09/26 01:47:57;;;;;;;2.80;2.63;;;16.40;99.90;;;;;;4915183;29;20044;-82
2021/09/26 01:50:26;;;;;;;2.42;2.22;;;16.40;99.90;;;;;;4885376;29;20138;-88
2021/09/26 01:52:57;;;;;;;2.83;2.63;;;16.50;99.90;;;;;;4914771;29;20510;-85
2021/09/26 01:55:26;;;;;;;2.17;2.05;;;16.50;99.90;;;;;;4917300;29;20050;-88
2021/09/26 01:57:56;;;;;;;2.13;2.03;;;16.50;99.90;;;;;;4915509;29;20063;-84
2021/09/26 02:00:23;;;;;;;2.10;2.00;;;16.30;99.90;;;;;;4915769;29;20600;-86
2021/09/26 02:02:52;;;;;;;2.50;2.30;;;16.30;99.90;;;;;;4899606;29;20044;-87
2021/09/26 02:05:20;;;;;;;2.00;1.90;;;16.30;99.90;;;;;;4899834;29;20044;-85
2021/09/26 02:07:50;;;;;;;2.10;2.00;;;16.20;99.90;;;;;;4915869;29;20122;-81
2021/09/26 02:10:22;;;;;;;3.78;2.75;;;16.10;99.90;;;;;;4898756;29;20077;-85
2021/09/26 02:12:49;;;;;;;2.50;2.30;;;16.10;99.90;;;;;;4899436;29;20051;-82
2021/09/26 02:15:21;;;;;;;4.40;3.38;;;16.00;99.90;;;;;;4915719;29;20507;-83
2021/09/26 02:17:50;;;;;;;2.47;2.28;;;15.90;99.90;;;;;;4916438;29;20125;-88
2021/09/26 02:20:18;;;;;;;2.40;2.20;;;15.90;99.90;;;;;;4916412;29;20048;-88
2021/09/26 02:22:48;;;;;;;2.75;2.55;;;16.00;99.90;;;;;;4914822;29;20056;-89
2021/09/26 02:25:18;;;;;;;3.42;2.70;;;15.90;99.90;;;;;;4915800;29;20047;-84
2021/09/26 02:27:46;;;;;;;6.35;4.35;;;15.90;99.90;;;;;;4899281;29;20135;-84
2021/09/26 02:30:14;;;;;;;2.38;2.17;;;15.80;99.90;;;;;;4916750;29;20048;-87
2021/09/26 02:32:41;;;;;;;3.22;3.00;;;15.60;99.90;;;;;;4916819;29;20048;-85
2021/09/26 02:35:10;;;;;;;3.20;2.95;;;15.70;99.90;;;;;;4914264;29;20400;-85
2021/09/26 02:37:38;;;;;;;2.70;2.50;;;15.80;99.90;;;;;;4914708;29;20048;-82
2021/09/26 02:40:08;;;;;;;2.95;2.75;;;15.70;99.90;;;;;;4916148;29;20051;-83
2021/09/26 02:42:49;;;;;;;3.05;2.75;;;15.60;99.90;;;;;;4899646;29;20135;-82
2021/09/26 02:45:38;;;;;;;2.20;2.08;;;15.70;99.90;;;;;;4913604;29;20134;-82
2021/09/26 02:48:16;;;;;;;3.38;3.08;;;15.50;99.90;;;;;;4897250;29;20104;-81
2021/09/26 02:50:46;;;;;;;2.92;2.72;;;15.50;99.90;;;;;;4914714;29;20052;-82
2021/09/26 02:53:14;;;;;;;2.60;2.38;;;15.50;99.90;;;;;;4915095;29;20050;-81
2021/09/26 02:55:44;;;;;;;2.10;2.00;;;15.50;99.90;;;;;;4916062;29;20048;-79
2021/09/26 02:58:12;;;;;;;2.30;2.10;;;15.50;99.90;;;;;;4912050;29;20127;-81
2021/09/26 03:00:43;;;;;;;2.00;1.90;;;15.50;99.90;;;;;;4920829;29;20115;-82
2021/09/26 03:03:24;;;;;;;2.00;1.90;;;15.50;99.90;;;;;;4933569;29;20084;-84
2021/09/26 03:05:53;;;;;;;2.83;2.63;;;15.50;99.90;;;;;;4917459;29;20044;-82
2021/09/26 03:08:22;;;;;;;3.80;3.50;;;15.50;99.90;;;;;;4932613;29;20060;-82
2021/09/26 03:10:56;;;;;;;3.70;2.60;;;15.40;99.90;;;;;;4915224;29;20072;-82
2021/09/26 03:13:23;;;;;;;2.20;2.08;;;15.40;99.90;;;;;;4934493;29;20155;-84
2021/09/26 03:15:51;;;;;;;2.47;2.28;;;15.30;99.90;;;;;;4937153;29;20050;-82
2021/09/26 03:18:19;;;;;;;2.95;2.75;;;15.40;99.90;;;;;;4921056;29;20047;-83
2021/09/26 03:20:47;;;;;;;2.20;2.10;;;15.30;99.90;;;;;;4937184;29;20636;-83
2021/09/26 03:23:15;;;;;;;2.38;2.17;;;15.30;99.90;;;;;;4934684;29;20131;-82
2021/09/26 03:25:42;;;;;;;3.25;3.05;;;15.30;99.90;;;;;;4938618;29;20125;-85
2021/09/26 03:28:10;;;;;;;2.72;2.53;;;15.30;99.90;;;;;;4921097;29;20047;-82
2021/09/26 03:30:37;;;;;;;3.45;3.15;;;15.20;99.90;;;;;;4937017;29;20067;-84
2021/09/26 03:33:04;;;;;;;2.22;2.10;;;15.20;99.90;;;;;;4936640;29;20660;-82
2021/09/26 03:35:32;;;;;;;2.83;2.63;;;15.20;99.90;;;;;;4935900;29;20043;-82
2021/09/26 03:37:59;;;;;;;3.65;3.35;;;15.20;99.90;;;;;;4936723;29;20047;-82
2021/09/26 03:40:27;;;;;;;3.55;3.30;;;15.20;99.90;;;;;;4921055;29;20407;-80
2021/09/26 03:42:54;;;;;;;2.38;2.17;;;15.10;99.90;;;;;;4937920;29;20066;-83
2021/09/26 03:45:21;;;;;;;2.55;2.35;;;15.10;99.90;;;;;;4933868;29;20044;-81
2021/09/26 03:47:50;;;;;;;3.85;3.55;;;15.10;99.90;;;;;;4920531;29;20433;-82
2021/09/26 03:50:17;;;;;;;2.95;2.75;;;15.10;99.90;;;;;;4937679;29;20044;-81
2021/09/26 03:52:45;;;;;;;2.50;2.30;;;15.00;99.90;;;;;;4936334;29;20404;-84
2021/09/26 03:55:12;;;;;;;2.85;2.65;;;15.00;99.90;;;;;;4937831;29;20492;-84
2021/09/26 03:57:40;;;;;;;2.08;1.98;;;15.10;99.90;;;;;;4933507;29;20047;-84
2021/09/26 04:00:10;;;;;;;2.67;2.47;;;15.10;99.90;;;;;;4936739;29;20143;-84
2021/09/26 04:02:38;;;;;;;2.07;1.97;;;15.10;99.90;;;;;;4918874;29;20051;-85
2021/09/26 04:05:07;;;;;;;3.67;3.33;;;15.00;99.90;;;;;;4918393;29;20574;-84
2021/09/26 04:07:35;;;;;;;2.70;2.50;;;15.00;99.90;;;;;;4917312;29;20044;-86
2021/09/26 04:10:06;;;;;;;7.07;2.65;;;14.90;99.90;;;;;;4916204;29;20365;-84
2021/09/26 04:12:33;;;;;;;2.72;2.53;;;14.90;99.90;;;;;;4918180;29;20044;-84
2021/09/26 04:15:01;;;;;;;2.72;2.53;;;14.40;99.90;;;;;;4917181;29;20400;-83
2021/09/26 04:17:28;;;;;;;2.95;2.75;;;14.00;99.90;;;;;;4917813;29;20044;-82
2021/09/26 04:19:55;;;;;;;2.50;2.30;;;14.40;99.90;;;;;;4917460;29;20056;-83
2021/09/26 04:22:23;;;;;;;2.58;2.38;;;14.50;99.90;;;;;;4913555;29;20057;-79
2021/09/26 04:24:50;;;;;;;2.90;2.70;;;14.60;99.90;;;;;;4935998;29;20044;-83
2021/09/26 04:27:17;;;;;;;2.33;2.13;;;14.60;99.90;;;;;;4903095;29;20052;-80
2021/09/26 04:29:45;;;;;;;2.40;2.20;;;14.70;99.90;;;;;;4919747;29;20127;-81
2021/09/26 04:32:12;;;;;;;5.07;3.90;;;14.80;99.90;;;;;;4918194;29;20055;-83
2021/09/26 04:34:39;;;;;;;3.05;2.85;;;14.70;99.90;;;;;;4936125;29;20035;-83
2021/09/26 04:37:07;;;;;;;3.05;2.85;;;14.60;99.90;;;;;;4926928;29;20463;-82
2021/09/26 04:39:34;;;;;;;4.28;3.88;;;14.80;99.90;;;;;;4937515;29;20063;-84
2021/09/26 04:42:06;;;;;;;3.05;2.85;;;14.80;99.90;;;;;;4937859;29;20050;-83
2021/09/26 04:44:34;;;;;;;2.67;2.47;;;14.90;99.90;;;;;;4917693;29;20065;-86
2021/09/26 04:47:02;;;;;;;3.13;2.92;;;14.80;99.90;;;;;;4920617;29;20127;-81
2021/09/26 04:49:29;;;;;;;2.92;2.72;;;14.80;99.90;;;;;;4935740;29;20051;-85
2021/09/26 04:51:58;;;;;;;2.67;2.47;;;14.80;99.90;;;;;;4935921;29;20046;-81
2021/09/26 04:54:26;;;;;;;2.30;2.10;;;14.70;99.90;;;;;;4937270;29;20070;-83
2021/09/26 04:56:53;;;;;;;2.53;2.33;;;14.80;99.90;;;;;;4916575;29;20043;-83
2021/09/26 04:59:21;;;;;;;2.50;2.30;;;14.90;99.90;;;;;;4935760;29;20078;-85
2021/09/26 05:01:49;;;;;;;4.47;4.07;;;14.80;99.90;;;;;;4906155;29;20039;-82
2021/09/26 05:04:17;;;;;;;6.82;4.47;;;14.90;99.90;;;;;;4938153;29;20102;-88
2021/09/26 05:06:45;;;;;;;6.35;4.78;;;15.00;99.90;;;;;;4936810;29;20054;-86
2021/09/26 05:09:12;;;;;;;3.47;3.17;;;15.00;99.90;;;;;;4935104;29;20047;-87
2021/09/26 05:11:39;;;;;;;5.40;4.93;;;15.00;99.90;;;;;;4936911;29;20039;-87
2021/09/26 05:14:08;;;;;;;3.80;3.50;;;15.20;99.90;;;;;;4923990;29;20506;-91
2021/09/26 05:16:37;;;;;;;3.45;3.17;;;15.10;99.90;;;;;;4926421;29;20400;-91
2021/09/26 05:19:05;;;;;;;2.60;2.40;;;15.20;99.90;;;;;;4941024;29;20095;-88
2021/09/26 05:21:36;;;;;;;2.42;2.28;;;15.40;99.90;;;;;;4920471;29;20046;-86
2021/09/26 05:24:03;;;;;;;3.53;3.22;;;15.40;99.90;;;;;;4919907;29;20134;-88
2021/09/26 05:26:31;;;;;;;4.57;2.67;;;15.60;99.90;;;;;;4937049;29;20424;-89
2021/09/26 05:28:58;;;;;;;2.10;2.00;;;15.60;99.90;;;;;;4919178;29;20046;-84
2021/09/26 05:31:25;;;;;;;2.55;2.25;;;15.60;99.90;;;;;;4937482;29;20048;-87
2021/09/26 05:33:56;;;;;;;1.90;1.80;;;15.50;99.90;;;;;;4937496;29;20044;-92
2021/09/26 05:36:25;;;;;;;2.70;2.50;;;15.60;99.90;;;;;;4917818;29;20052;-91
2021/09/26 05:38:53;;;;;;;2.63;2.45;;;15.70;99.90;;;;;;4937323;29;20066;-86
2021/09/26 05:41:21;;;;;;;2.42;2.22;;;15.80;99.90;;;;;;4937884;29;20051;-86
2021/09/26 05:43:48;;;;;;;2.00;1.90;;;15.80;99.90;;;;;;4921717;29;20032;-90
2021/09/26 05:46:16;;;;;;;1.92;1.83;;;15.70;99.90;;;;;;4940859;29;20131;-84
2021/09/26 05:48:43;;;;;;;2.58;2.38;;;15.80;99.90;;;;;;4920313;29;20048;-81
2021/09/26 05:51:10;;;;;;;2.85;2.65;;;15.30;99.90;;;;;;4925968;29;20050;-81
2021/09/26 05:53:38;;;;;;;3.30;3.10;;;14.90;99.90;;;;;;4918169;29;20044;-82
2021/09/26 05:56:05;;;;;;;3.63;3.20;;;15.30;99.90;;;;;;4932661;29;20437;-83
2021/09/26 05:58:33;;;;;;;2.10;2.00;;;15.40;99.90;;;;;;4932963;29;20396;-83
2021/09/26 06:01:00;;;;;;;2.10;2.00;;;15.60;99.90;;;;;;4917658;29;20050;-83
2021/09/26 06:03:27;;;;;;;2.45;2.20;;;15.80;99.90;;;;;;4918113;29;20044;-82
2021/09/26 06:05:55;;;;;;;2.13;2.00;;;16.10;99.90;;;;;;4917813;29;20495;-84
2021/09/26 06:08:26;;;;;;;1.90;1.80;;;16.20;99.90;;;;;;4914505;29;20508;-83
2021/09/26 06:10:54;;;;;;;2.28;2.08;;;16.30;99.90;;;;;;4917931;29;20491;-83
2021/09/26 06:13:22;;;;;;;3.10;2.90;;;16.40;99.90;;;;;;4917852;29;20054;-82
2021/09/26 06:15:49;;;;;;;2.85;2.65;;;16.40;99.90;;;;;;4934679;29;20066;-82
2021/09/26 06:18:18;;;;;;;3.70;3.40;;;16.20;99.90;;;;;;4932758;29;20047;-82
2021/09/26 06:20:47;;;;;;;2.42;2.22;;;16.10;99.90;;;;;;4929162;29;20419;-83
2021/09/26 06:23:16;;;;;;;5.97;3.95;;;16.00;99.90;;;;;;4923817;29;20205;-84
2021/09/26 06:25:43;;;;;;;1.90;1.80;;;16.20;99.90;;;;;;4934178;29;20394;-85
2021/09/26 06:28:11;;;;;;;2.20;2.10;;;16.30;99.90;;;;;;4931656;29;20061;-80
2021/09/26 06:30:38;;;;;;;1.80;1.70;;;16.50;99.90;;;;;;4933789;29;20050;-82
2021/09/26 06:33:06;;;;;;;2.45;2.25;;;16.60;99.90;;;;;;4932499;29;20055;-81
2021/09/26 06:35:33;;;;;;;10.45;5.72;;;16.80;99.90;;;;;;4916321;29;20400;-86
2021/09/26 06:38:01;;;;;;;2.03;1.90;;;16.90;99.90;;;;;;4933306;29;20058;-84
2021/09/26 06:40:30;;;;;;;3.28;2.78;;;17.00;99.90;;;;;;4934951;29;20122;-85
2021/09/26 06:42:58;;;;;;;4.50;3.63;;;17.10;99.90;;;;;;4933781;29;20102;-89
2021/09/26 06:45:28;;;;;;;2.60;2.40;;;17.00;99.90;;;;;;4934967;29;20048;-82
2021/09/26 06:47:55;;;;;;;5.17;4.63;;;17.00;99.90;;;;;;4932715;29;20443;-83
2021/09/26 06:50:23;;;;;;;18.80;5.15;;;17.20;99.90;;;;;;4936848;29;20048;-82
2021/09/26 06:52:50;;;;;;;4.55;3.67;;;17.50;99.90;;;;;;4918676;29;20061;-80
2021/09/26 06:55:18;;;;;;;7.22;3.97;;;17.60;99.90;;;;;;4935737;29;20046;-79
2021/09/26 06:57:45;;;;;;;5.90;2.75;;;17.70;99.90;;;;;;4919448;29;20376;-82
2021/09/26 07:00:13;;;;;;;7.50;6.43;;;17.80;99.90;;;;;;4938144;29;20372;-83
2021/09/26 07:02:43;;;;;;;3.75;3.45;;;17.90;99.90;;;;;;4920848;29;20036;-83
2021/09/26 07:05:11;;;;;;;2.38;2.17;;;17.80;99.90;;;;;;4920502;29;20040;-84
2021/09/26 07:07:39;;;;;;;2.17;2.00;;;17.60;99.90;;;;;;4890688;29;20492;-80
2021/09/26 07:10:06;;;;;;;2.40;2.20;;;17.50;99.90;;;;;;4937158;29;20048;-80
2021/09/26 07:12:34;;;;;;;1.98;1.88;;;17.70;99.90;;;;;;4937138;29;20048;-81
2021/09/26 07:15:03;;;;;;;3.08;2.80;;;17.80;99.90;;;;;;4937863;29;20059;-82
2021/09/26 07:17:31;;;;;;;2.95;2.75;;;18.00;99.90;;;;;;4919888;29;20048;-82
2021/09/26 07:19:58;;;;;;;6.15;3.80;;;17.70;99.90;;;;;;4935831;29;20147;-83
2021/09/26 07:22:25;;;;;;;2.75;2.55;;;17.80;99.90;;;;;;4939405;29;20126;-92
2021/09/26 07:24:54;;;;;;;2.15;2.05;;;18.10;99.90;;;;;;4940188;29;20160;-91
2021/09/26 07:27:22;;;;;;;1.50;1.40;;;18.20;99.90;;;;;;4925627;29;20172;-88
2021/09/26 07:29:50;;;;;;;3.40;2.53;;;18.30;99.90;;;;;;4939724;29;20130;-90
2021/09/26 07:32:17;;;;;;;4.82;2.58;;;18.20;99.90;;;;;;4922168;29;20050;-89
2021/09/26 07:34:45;;;;;;;2.35;2.17;;;18.10;99.90;;;;;;4939334;29;20521;-87
2021/09/26 07:37:12;;;;;;;1.73;1.63;;;18.20;99.90;;;;;;4921349;29;20078;-89
2021/09/26 07:39:40;;;;;;;2.65;2.45;;;18.20;99.90;;;;;;4907207;29;20051;-90
2021/09/26 07:42:07;;;;;;;1.75;1.65;;;18.40;99.90;;;;;;4921929;29;20044;-85
2021/09/26 07:44:35;;;;;;;1.65;1.55;;;18.50;99.90;;;;;;4905534;29;20063;-89
2021/09/26 07:47:06;;;;;;;2.28;2.13;;;18.70;99.90;;;;;;4939317;29;20050;-84
2021/09/26 07:49:35;;;;;;;1.77;1.67;;;19.00;99.90;;;;;;4922584;29;20047;-91
2021/09/26 07:52:03;;;;;;;1.67;1.58;;;19.00;99.30;;;;;;4923448;29;20048;-92
2021/09/26 07:54:31;;;;;;;5.50;3.38;;;19.20;99.20;;;;;;4924755;29;20575;-87
2021/09/26 07:57:00;;;;;;;1.75;1.65;;;19.20;98.90;;;;;;4954067;29;20067;-91
2021/09/26 07:59:27;;;;;;;1.70;1.60;;;19.50;98.30;;;;;;4939484;29;20052;-90
2021/09/26 08:01:56;;;;;;;1.40;1.30;;;20.00;97.80;;;;;;4923105;29;20044;-93
2021/09/26 08:04:24;;;;;;;2.67;2.30;;;20.30;97.10;;;;;;4923765;29;20063;-91
2021/09/26 08:07:20;;;;;;;1.90;1.80;;;20.60;96.60;;;;;;4922059;29;20039;-88
2021/09/26 08:09:59;;;;;;;1.40;1.30;;;20.90;96.00;;;;;;4905522;29;20048;-87
2021/09/26 08:12:27;;;;;;;4.97;3.60;;;21.10;95.10;;;;;;4940220;29;20638;-90
2021/09/26 08:14:55;;;;;;;1.45;1.35;;;21.10;94.40;;;;;;4903656;29;20045;-90
2021/09/26 08:17:23;;;;;;;1.05;1.02;;;21.30;93.30;;;;;;4912630;29;20040;-87
2021/09/26 08:19:51;;;;;;;1.40;1.30;;;21.40;93.30;;;;;;4939450;29;20467;-91
2021/09/26 08:22:26;;;;;;;1.90;1.75;;;21.60;92.60;;;;;;4894531;29;20374;-93
2021/09/26 08:25:09;;;;;;;3.13;1.67;;;21.80;92.20;;;;;;4924557;29;20052;-90
2021/09/26 08:27:37;;;;;;;1.45;1.35;;;22.10;91.50;;;;;;4923752;29;20080;-92
2021/09/26 08:30:08;;;;;;;1.48;1.38;;;22.40;91.30;;;;;;4918834;29;20048;-87
2021/09/26 08:32:37;;;;;;;2.85;1.70;;;22.50;90.90;;;;;;4888760;29;20037;-88
2021/09/26 08:35:28;;;;;;;1.58;1.42;;;22.70;90.40;;;;;;4902844;29;20056;-93
2021/09/26 08:41:12;;;;;;;2.03;1.83;;;22.80;88.10;;;;;;4894988;29;20521;-87
2021/09/26 08:43:40;;;;;;;4.25;3.85;;;22.90;87.30;;;;;;4901718;29;20036;-92
2021/09/26 08:46:26;;;;;;;1.58;1.48;;;23.20;86.00;;;;;;4920127;29;20044;-89
2021/09/26 08:48:55;;;;;;;1.55;1.40;;;23.20;82.80;;;;;;4896744;29;20047;-92
2021/09/26 08:51:23;;;;;;;3.70;1.42;;;23.40;82.10;;;;;;4894849;29;20050;-89
2021/09/26 08:53:51;;;;;;;1.20;1.10;;;23.60;83.20;;;;;;4925540;29;20828;-89
2021/09/26 08:56:20;;;;;;;1.50;1.38;;;23.50;81.00;;;;;;4921309;29;20674;-89
2021/09/26 08:58:49;;;;;;;0.80;0.80;;;23.60;81.30;;;;;;4884807;29;20059;-87
2021/09/26 09:01:22;;;;;;;1.15;1.05;;;24.00;81.00;;;;;;4882832;29;20080;-89
2021/09/26 09:03:50;;;;;;;1.02;1.00;;;24.20;78.40;;;;;;4882331;29;20053;-85
2021/09/26 09:06:44;;;;;;;1.60;1.50;;;24.20;78.90;;;;;;4876871;29;20500;-87
2021/09/26 09:09:24;;;;;;;1.80;1.70;;;24.40;78.50;;;;;;4907954;29;20051;-90
2021/09/26 09:12:04;;;;;;;3.30;1.75;;;24.80;77.40;;;;;;4899913;29;20047;-85
2021/09/26 09:14:53;;;;;;;;;;;25.00;77.30;;;;;;4915070;29;20072;-86
2021/09/26 09:17:49;;;;;;;0.60;0.60;;;25.10;75.40;;;;;;4891808;29;19959;-83
2021/09/26 09:20:42;;;;;;;0.98;0.93;;;25.40;75.00;;;;;;4870561;29;20064;-83
2021/09/26 09:23:22;;;;;;;1.15;1.02;;;25.30;72.70;;;;;;4909486;29;20115;-87
2021/09/26 09:25:52;;;;;;;2.03;1.55;;;25.30;71.30;;;;;;4914612;29;20411;-85
2021/09/26 09:28:29;;;;;;;0.70;0.68;;;25.40;71.50;;;;;;4898702;29;20135;-84
2021/09/26 09:31:03;;;;;;;0.80;0.80;;;25.60;71.10;;;;;;4907651;29;20071;-84
2021/09/26 09:33:40;;;;;;;4.22;1.50;;;25.30;70.10;;;;;;4900338;29;20091;-82
2021/09/26 09:36:22;;;;;;;0.77;0.77;;;25.30;71.50;;;;;;4884548;29;20056;-80
2021/09/26 09:38:53;;;;;;;1.65;1.25;;;25.70;70.70;;;;;;4900562;29;20051;-85
2021/09/26 09:41:43;;;;;;;0.70;0.70;;;26.20;68.50;;;;;;4916636;29;20131;-85
2021/09/26 09:44:13;;;;;;;1.08;0.77;;;26.20;68.50;;;;;;4884039;29;20044;-83
2021/09/26 09:47:09;;;;;;;1.35;1.25;;;26.50;67.20;;;;;;4898113;29;20103;-81
2021/09/26 09:49:38;;;;;;;0.90;0.90;;;26.50;65.70;;;;;;4898580;29;20108;-85
2021/09/26 09:52:18;;;;;;;1.77;1.58;;;26.60;66.20;;;;;;4899175;29;20040;-83
2021/09/26 09:54:57;;;;;;;3.97;3.33;;;26.50;65.80;;;;;;4891652;29;20902;-85
2021/09/26 09:57:31;;;;;;;2.00;1.80;;;26.60;65.20;;;;;;4889481;29;20040;-83
2021/09/26 10:00:17;;;;;;;1.88;1.67;;;26.90;65.10;;;;;;4876576;29;20052;-83
2021/09/26 10:02:47;;;;;;;0.85;0.77;;;26.60;64.00;;;;;;4895717;29;20052;-81
2021/09/26 10:05:36;;;;;;;0.70;0.70;;;26.80;63.50;;;;;;4898058;29;20056;-83
2021/09/26 10:08:27;;;;;;;0.75;0.75;;;26.90;64.00;;;;;;4915392;29;20039;-82
2021/09/26 10:11:07;;;;;;;1.27;1.17;;;26.70;63.10;;;;;;4914927;29;20048;-80
2021/09/26 10:13:36;;;;;;;2.70;2.15;;;26.90;63.40;;;;;;4910596;29;20408;-84
2021/09/26 10:16:08;;;;;;;0.88;0.77;;;27.40;62.30;;;;;;4913995;29;20610;-85
2021/09/26 10:18:47;;;;;;;1.13;0.95;;;27.70;61.50;;;;;;4913711;29;20047;-82
2021/09/26 10:21:19;;;;;;;0.43;0.43;;;28.00;61.10;;;;;;4897405;29;20055;-85
2021/09/26 10:23:56;;;;;;;0.93;0.90;;;28.00;60.00;;;;;;4897976;29;20393;-86
2021/09/26 10:26:25;;;;;;;1.52;1.00;;;28.00;59.40;;;;;;4881948;29;20380;-86
2021/09/26 10:29:00;;;;;;;1.05;0.95;;;28.20;58.50;;;;;;4896962;29;20433;-82
2021/09/26 10:31:34;;;;;;;1.00;0.75;;;28.20;58.30;;;;;;4913918;29;20399;-87
2021/09/26 10:34:04;;;;;;;2.35;0.80;;;27.90;58.40;;;;;;4913927;29;20046;-81
2021/09/26 10:36:34;;;;;;;1.38;1.27;;;27.60;58.00;;;;;;4897334;29;20044;-81
2021/09/26 10:39:07;;;;;;;0.50;0.50;;;28.10;57.90;;;;;;4879992;29;20412;-83
2021/09/26 10:42:02;;;;;;;3.40;1.65;;;27.80;57.20;;;;;;4912815;29;20044;-81
2021/09/26 10:44:30;;;;;;;5.03;2.67;;;28.20;58.40;;;;;;4880811;29;20052;-83
2021/09/26 10:47:31;;;;;;;1.40;1.30;;;28.50;58.90;;;;;;4889804;29;20048;-83
2021/09/26 10:50:18;;;;;;;0.90;0.80;;;28.60;59.40;;;;;;4890541;29;20048;-82
2021/09/26 10:53:05;;;;;;;1.45;1.17;;;28.90;59.70;;;;;;4863293;29;20136;-86
2021/09/26 10:55:36;;;;;;;1.88;1.30;;;28.60;59.10;;;;;;4894541;29;20065;-84
2021/09/26 10:58:06;;;;;;;2.05;1.10;;;28.40;59.20;;;;;;4907737;29;20060;-85
2021/09/26 11:00:37;;;;;;;;;;;28.60;59.30;;;;;;4894026;29;20417;-83
2021/09/26 11:07:18;;;;;;;0.80;0.80;;;28.80;58.30;;;;;;4955685;23;20081;-83
2021/09/26 11:09:54;;;;;;;0.50;0.50;;;28.90;56.80;;;;;;4934012;29;20471;-84
2021/09/26 11:12:50;;;;;;;0.73;0.63;;;29.10;56.60;;;;;;4911316;29;20474;-84
2021/09/26 11:15:21;;;;;;;0.98;0.70;;;29.30;56.60;;;;;;4912549;29;20394;-82
2021/09/26 11:17:49;;;;;;;0.50;0.50;;;29.40;56.70;;;;;;4947727;29;20039;-82
2021/09/26 11:20:26;;;;;;;0.73;0.65;;;29.70;57.70;;;;;;4931922;29;20043;-88
2021/09/26 11:23:06;;;;;;;1.02;0.63;;;30.00;57.10;;;;;;4935036;29;20035;-82
2021/09/26 11:26:03;;;;;;;1.33;0.65;;;30.30;56.50;;;;;;4934128;29;20046;-82
2021/09/26 11:28:36;;;;;;;1.27;0.82;;;30.40;56.60;;;;;;4933400;29;20443;-83
2021/09/26 11:31:51;;;;;;;1.50;1.05;;;30.30;55.70;;;;;;4932164;29;20052;-83
2021/09/26 11:34:41;;;;;;;0.32;0.32;;;30.30;55.00;;;;;;4920607;28;20043;-80
2021/09/26 11:37:12;;;;;;;0.47;0.47;;;30.50;54.80;;;;;;4926769;29;20043;-79
2021/09/26 11:39:51;;;;;;;0.75;0.70;;;29.90;54.60;;;;;;4922702;29;20035;-81
2021/09/26 11:42:33;;;;;;;1.23;0.63;;;29.60;56.00;;;;;;4938960;29;20107;-80
2021/09/26 11:45:03;;;;;;;0.40;0.40;;;30.00;55.40;;;;;;4938329;29;20282;-85
2021/09/26 11:50:44;;;;;;;3.65;2.47;;;30.30;55.20;;;;;;5195563;23;20092;-81
2021/09/26 11:53:14;;;;;;;2.45;2.10;;;30.50;54.10;;;;;;4955789;29;20102;-82
2021/09/26 11:55:43;;;;;;;1.15;1.05;;;30.40;54.20;;;;;;4938988;29;20042;-81
2021/09/26 11:58:12;;;;;;;1.33;0.90;;;30.70;54.20;;;;;;4954345;29;20047;-82
2021/09/26 12:00:41;;;;;;;0.50;0.50;;;30.60;53.80;;;;;;4927411;29;20348;-83
2021/09/26 12:03:27;;;;;;;2.47;1.77;;;30.50;53.50;;;;;;4954163;29;20035;-84
2021/09/26 12:05:55;;;;;;;1.55;1.20;;;30.20;53.70;;;;;;4937794;29;20686;-82
2021/09/26 12:08:24;;;;;;;1.73;1.13;;;30.60;53.60;;;;;;4954456;29;20071;-92
2021/09/26 12:11:07;;;;;;;1.48;0.75;;;30.50;52.50;;;;;;4953446;29;20043;-83
2021/09/26 12:13:55;;;;;;;0.30;0.30;;;30.30;53.00;;;;;;4937390;29;20031;-85
2021/09/26 12:16:25;;;;;;;1.80;1.42;;;30.60;52.40;;;;;;4954445;29;20058;-81
2021/09/26 12:18:56;;;;;;;0.73;0.67;;;30.50;54.70;;;;;;4937606;29;20046;-80
2021/09/26 12:21:32;;;;;;;0.30;0.30;;;30.10;53.50;;;;;;4937857;29;20043;-80
2021/09/26 12:24:08;;;;;;;1.45;1.05;;;30.40;51.70;;;;;;4936193;29;20070;-80
2021/09/26 12:26:45;;;;;;;0.50;0.50;;;30.70;54.70;;;;;;4938446;29;20043;-80
2021/09/26 12:29:28;;;;;;;0.52;0.52;;;30.70;50.50;;;;;;4921921;29;20579;-80
2021/09/26 12:32:08;;;;;;;0.70;0.70;;;31.00;48.80;;;;;;4930886;29;20515;-79
2021/09/26 12:34:45;;;;;;;0.95;0.77;;;33.70;51.90;;;;;;4933814;29;20050;-80
2021/09/26 12:37:22;;;;;;;0.50;0.50;;;37.80;46.70;;;;;;4934542;29;20486;-82
2021/09/26 12:39:54;;;;;;;0.98;0.68;;;39.40;42.60;;;;;;4954977;29;20039;-81
2021/09/26 12:42:25;;;;;;;0.73;0.50;;;37.10;41.80;;;;;;4955364;29;20039;-80
2021/09/26 12:44:53;;;;;;;0.50;0.45;;;35.40;43.30;;;;;;4954848;29;20043;-80
2021/09/26 12:47:26;;;;;;;8.90;0.90;;;34.00;46.40;;;;;;4933861;29;20045;-80
2021/09/26 12:49:54;;;;;;;0.57;0.40;;;33.60;46.00;;;;;;4937306;29;20051;-81
2021/09/26 12:52:26;;;;;;;0.20;0.20;;;33.40;46.60;;;;;;4936794;29;20049;-82
2021/09/26 12:55:08;;;;;;;0.50;0.50;;;33.60;45.40;;;;;;4954418;29;20035;-81
2021/09/26 12:57:39;;;;;;;0.22;0.22;;;33.50;46.90;;;;;;4936987;29;20027;-88
2021/09/26 13:00:17;;;;;;;0.40;0.40;;;33.50;48.70;;;;;;4921575;29;20058;-87
2021/09/26 13:03:21;;;;;;;0.60;0.40;;;33.20;45.70;;;;;;4939154;29;20145;-91
2021/09/26 13:06:00;;;;;;;0.47;0.35;;;33.50;47.90;;;;;;4921906;29;20143;-90
2021/09/26 13:08:31;;;;;;;;;;;33.70;45.20;;;;;;4921663;29;20134;-85
2021/09/26 13:11:26;;;;;;;2.20;1.50;;;33.50;44.90;;;;;;4953188;29;20025;-84
2021/09/26 13:14:11;;;;;;;1.13;0.57;;;33.10;43.50;;;;;;4954644;29;20042;-85
2021/09/26 13:17:02;;;;;;;0.40;0.40;;;33.00;45.30;;;;;;4921970;29;20047;-88
2021/09/26 13:31:19;;;;;;;0.60;0.60;;;32.50;49.30;;;;;;5814143;23;20434;-82
2021/09/26 13:34:10;;;;;;;0.20;0.20;;;32.80;49.70;;;;;;4877837;29;20043;-86
2021/09/26 13:36:47;;;;;;;0.43;0.40;;;32.40;50.10;;;;;;4864048;29;20139;-86
2021/09/26 13:39:44;;;;;;;0.65;0.50;;;32.70;47.90;;;;;;4881013;29;20063;-83